createdAt,value
2023-08-15T00:01:29.981Z,6.60
2023-08-15T00:06:37.876Z,7.10
2023-08-15T00:11:45.398Z,6.90
2023-08-15T00:16:53.129Z,6.90
2023-08-15T00:22:01.074Z,6.90
2023-08-15T00:27:09.228Z,6.90
2023-08-15T00:32:17.202Z,6.80
2023-08-15T00:37:25.150Z,6.70
2023-08-15T00:42:32.664Z,7.00
2023-08-15T00:47:41.221Z,6.90
2023-08-15T00:52:49.238Z,7.60
2023-08-15T00:57:57.315Z,7.30
2023-08-15T01:03:05.146Z,7.50
2023-08-15T01:08:13.561Z,7.50
2023-08-15T01:13:29.033Z,7.10
2023-08-15T01:18:42.304Z,7.60
2023-08-15T01:23:52.433Z,7.50
2023-08-15T01:29:00.423Z,8.00
2023-08-15T01:34:14.070Z,6.90
2023-08-15T01:39:30.308Z,7.10
2023-08-15T01:44:39.443Z,7.90
2023-08-15T01:49:47.787Z,8.30
2023-08-15T01:54:55.865Z,8.00
2023-08-15T02:00:03.684Z,7.70
2023-08-15T02:05:23.787Z,7.70
2023-08-15T02:10:32.145Z,8.30
2023-08-15T02:15:39.813Z,7.30
2023-08-15T02:20:47.463Z,7.80
2023-08-15T02:25:55.494Z,7.90
2023-08-15T02:31:06.637Z,7.20
2023-08-15T02:36:15.123Z,8.20
2023-08-15T02:41:23.599Z,8.90
2023-08-15T02:46:31.284Z,7.30
2023-08-15T02:51:38.685Z,7.80
2023-08-15T02:56:46.260Z,8.20
2023-08-15T03:01:55.121Z,8.20
2023-08-15T03:07:02.974Z,8.70
2023-08-15T03:12:11.400Z,9.00
2023-08-15T03:17:20.984Z,8.50
2023-08-15T03:22:29.190Z,8.30
2023-08-15T03:27:37.541Z,8.80
2023-08-15T03:32:45.987Z,8.90
2023-08-15T03:37:54.342Z,10.20
2023-08-15T03:43:02.695Z,7.10
2023-08-15T03:48:12.771Z,9.40
2023-08-15T03:53:20.361Z,9.50
2023-08-15T03:58:28.405Z,9.10
2023-08-15T04:03:37.161Z,10.00
2023-08-15T04:08:45.008Z,9.10
2023-08-15T04:13:52.903Z,10.10
2023-08-15T04:19:00.562Z,9.70
2023-08-15T04:24:09.307Z,10.40
2023-08-15T04:29:16.975Z,9.90
2023-08-15T04:34:24.692Z,10.40
2023-08-15T04:39:32.752Z,10.80
2023-08-15T04:44:41.482Z,10.80
2023-08-15T04:49:50.298Z,11.90
2023-08-15T04:54:58.585Z,11.70
2023-08-15T05:00:10.364Z,11.20
2023-08-15T05:05:20.167Z,11.20
2023-08-15T05:10:28.192Z,11.70
2023-08-15T05:15:35.843Z,12.60
2023-08-15T05:20:44.038Z,12.50
2023-08-15T05:25:51.962Z,12.10
2023-08-15T05:30:59.845Z,12.50
2023-08-15T05:36:08.041Z,12.40
2023-08-15T05:41:15.677Z,12.90
2023-08-15T05:46:23.281Z,10.90
2023-08-15T05:51:30.759Z,10.80
2023-08-15T05:56:38.283Z,12.10
2023-08-15T06:01:46.117Z,12.90
2023-08-15T06:06:53.605Z,11.70
2023-08-15T06:12:01.169Z,11.50
2023-08-15T06:17:09.408Z,13.00
2023-08-15T06:22:17.104Z,11.60
2023-08-15T06:27:24.771Z,11.40
2023-08-15T06:32:33.602Z,10.40
2023-08-15T06:37:41.407Z,10.90
2023-08-15T06:42:49.771Z,8.50
2023-08-15T06:47:57.370Z,10.10
2023-08-15T06:53:04.898Z,8.70
2023-08-15T06:58:12.606Z,10.00
2023-08-15T07:03:21.359Z,10.00
2023-08-15T07:08:29.024Z,9.20
2023-08-15T07:13:36.693Z,9.60
2023-08-15T07:18:44.096Z,10.20
2023-08-15T07:23:51.946Z,9.00
2023-08-15T07:28:59.522Z,10.00
2023-08-15T07:34:07.634Z,9.40
2023-08-15T07:39:15.359Z,8.80
2023-08-15T07:44:23.111Z,7.70
2023-08-15T07:49:33.762Z,8.10
2023-08-15T07:54:47.093Z,8.10
2023-08-15T07:59:54.630Z,8.70
2023-08-15T08:05:02.090Z,8.20
2023-08-15T08:10:11.241Z,7.50
2023-08-15T08:15:18.760Z,7.30
2023-08-15T08:20:26.928Z,7.40
2023-08-15T08:25:34.375Z,7.80
2023-08-15T08:30:44.069Z,7.60
2023-08-15T08:35:52.180Z,6.40
2023-08-15T08:41:00.374Z,7.80
2023-08-15T08:46:11.391Z,7.40
2023-08-15T08:51:21.116Z,7.70
2023-08-15T08:56:30.813Z,7.80
2023-08-15T09:01:40.701Z,8.40
2023-08-15T09:06:48.835Z,7.20
2023-08-15T09:11:57.204Z,6.80
2023-08-15T09:17:04.926Z,6.90
2023-08-15T09:22:23.280Z,7.80
2023-08-15T09:27:31.142Z,7.20
2023-08-15T09:32:38.581Z,6.50
2023-08-15T09:37:50.472Z,7.10
2023-08-15T09:42:58.092Z,7.00
2023-08-15T09:48:07.631Z,7.50
2023-08-15T09:53:16.438Z,7.50
2023-08-15T09:58:24.052Z,7.40
2023-08-15T10:03:36.788Z,7.00
2023-08-15T10:08:45.447Z,7.10
2023-08-15T10:13:55.382Z,6.90
2023-08-15T10:19:04.447Z,6.70
2023-08-15T10:24:14.351Z,6.90
2023-08-15T10:29:22.187Z,6.60
2023-08-15T10:34:34.855Z,6.70
2023-08-15T10:39:44.478Z,6.50
2023-08-15T10:45:04.520Z,5.90
2023-08-15T10:50:14.099Z,5.90
2023-08-15T10:55:21.923Z,5.80
2023-08-15T11:00:30.574Z,5.80
2023-08-15T11:05:38.334Z,5.90
2023-08-15T11:10:52.016Z,5.50
2023-08-15T11:16:00.086Z,5.90
2023-08-15T11:21:10.325Z,5.70
2023-08-15T11:26:19.747Z,6.60
2023-08-15T11:31:27.832Z,5.80
2023-08-15T11:36:35.881Z,6.20
2023-08-15T11:41:43.863Z,6.30
2023-08-15T11:46:55.161Z,6.10
2023-08-15T11:52:08.709Z,5.60
2023-08-15T11:57:16.414Z,5.40
2023-08-15T12:02:23.986Z,5.70
2023-08-15T12:07:36.079Z,6.10
2023-08-15T12:12:46.140Z,6.10
2023-08-15T12:17:53.788Z,6.10
2023-08-15T12:23:01.826Z,6.10
2023-08-15T12:28:10.686Z,5.30
2023-08-15T12:33:27.349Z,5.70
2023-08-15T12:38:46.068Z,5.30
2023-08-15T12:43:54.187Z,5.20
2023-08-15T12:49:04.042Z,5.20
2023-08-15T12:54:11.786Z,5.50
2023-08-15T12:59:19.735Z,5.10
2023-08-15T13:04:27.468Z,5.10
2023-08-15T13:09:35.136Z,5.30
2023-08-15T13:14:45.892Z,5.10
2023-08-15T13:19:53.428Z,5.40
2023-08-15T13:25:01.230Z,5.60
2023-08-15T13:30:10.618Z,5.70
2023-08-15T13:35:18.224Z,5.30
2023-08-15T13:40:25.911Z,5.60
2023-08-15T13:45:33.731Z,5.40
2023-08-15T13:50:41.424Z,5.00
2023-08-15T13:55:49.599Z,5.10
2023-08-15T14:00:57.077Z,5.10
2023-08-15T14:06:06.212Z,5.50
2023-08-15T14:11:13.717Z,5.30
2023-08-15T14:16:22.026Z,5.20
2023-08-15T14:21:29.924Z,5.10
2023-08-15T14:26:37.233Z,4.90
2023-08-15T14:31:44.571Z,5.00
2023-08-15T14:36:52.959Z,4.70
2023-08-15T14:42:00.294Z,4.60
2023-08-15T14:47:08.352Z,3.70
2023-08-15T14:52:15.814Z,4.50
2023-08-15T14:57:23.686Z,5.10
2023-08-15T15:02:32.177Z,4.50
2023-08-15T15:07:39.544Z,4.60
2023-08-15T15:12:47.044Z,4.40
2023-08-15T15:17:55.186Z,4.80
2023-08-15T15:23:02.763Z,4.20
2023-08-15T15:28:10.747Z,4.80
2023-08-15T15:33:18.833Z,4.40
2023-08-15T15:38:26.522Z,4.60
2023-08-15T15:43:34.056Z,4.30
2023-08-15T15:48:41.468Z,4.70
2023-08-15T15:53:49.290Z,4.20
2023-08-15T15:58:57.257Z,4.70
2023-08-15T16:04:04.954Z,4.40
2023-08-15T16:09:15.375Z,4.10
2023-08-15T16:14:23.108Z,4.70
2023-08-15T16:19:30.755Z,4.80
2023-08-15T16:24:38.237Z,4.90
2023-08-15T16:29:45.785Z,4.50
2023-08-15T16:34:53.586Z,4.60
2023-08-15T16:40:01.057Z,4.30
2023-08-15T16:45:10.290Z,4.50
2023-08-15T16:50:18.294Z,4.80
2023-08-15T16:55:26.110Z,4.50
2023-08-15T17:00:34.151Z,5.20
2023-08-15T17:05:42.049Z,4.70
2023-08-15T17:10:49.766Z,4.60
2023-08-15T17:15:57.852Z,4.80
2023-08-15T17:21:05.818Z,4.70
2023-08-15T17:26:13.556Z,4.50
2023-08-15T17:31:21.459Z,4.90
2023-08-15T17:36:30.631Z,5.30
2023-08-15T17:41:38.505Z,5.60
2023-08-15T17:46:46.113Z,5.90
2023-08-15T17:51:53.906Z,5.50
2023-08-15T17:57:01.385Z,5.70
2023-08-15T18:02:09.281Z,6.00
2023-08-15T18:07:17.341Z,6.90
2023-08-15T18:12:25.193Z,7.10
2023-08-15T18:17:32.890Z,7.00
2023-08-15T18:22:40.428Z,7.00
2023-08-15T18:27:47.933Z,7.20
2023-08-15T18:32:55.336Z,7.10
2023-08-15T18:38:03.066Z,7.20
2023-08-15T18:43:10.683Z,7.70
2023-08-15T18:48:19.913Z,7.80
2023-08-15T18:53:27.746Z,8.00
2023-08-15T18:58:35.280Z,8.10
2023-08-15T19:03:43.315Z,8.10
2023-08-15T19:08:50.914Z,8.20
2023-08-15T19:13:58.449Z,8.60
2023-08-15T19:19:06.442Z,8.40
2023-08-15T19:24:19.353Z,8.90
2023-08-15T19:29:26.768Z,8.80
2023-08-15T19:34:34.213Z,9.20
2023-08-15T19:39:41.943Z,9.20
2023-08-15T19:44:50.673Z,9.10
2023-08-15T19:49:58.219Z,10.10
2023-08-15T19:55:06.818Z,10.50
2023-08-15T20:00:16.219Z,12.20
2023-08-15T20:05:23.989Z,13.30
2023-08-15T20:10:31.867Z,12.70
2023-08-15T20:15:42.119Z,11.50
2023-08-15T20:20:50.148Z,13.30
2023-08-15T20:25:57.739Z,15.70
2023-08-15T20:31:06.221Z,14.30
2023-08-15T20:36:15.127Z,16.80
2023-08-15T20:41:22.637Z,17.10
2023-08-15T20:46:41.284Z,15.80
2023-08-15T20:51:49.349Z,14.50
2023-08-15T20:56:57.334Z,15.20
2023-08-15T21:02:05.190Z,14.00
2023-08-15T21:07:14.245Z,12.80
2023-08-15T21:12:22.108Z,11.90
2023-08-15T21:17:30.074Z,12.80
2023-08-15T21:22:38.563Z,12.90
2023-08-15T21:27:46.533Z,12.20
2023-08-15T21:32:54.047Z,11.30
2023-08-15T21:38:02.097Z,10.00
2023-08-15T21:43:09.806Z,10.70
2023-08-15T21:48:17.279Z,10.00
2023-08-15T21:53:24.788Z,8.70
2023-08-15T21:58:32.414Z,7.80
2023-08-15T22:03:39.932Z,8.10
2023-08-15T22:08:47.664Z,7.50
2023-08-15T22:13:55.047Z,7.80
2023-08-15T22:19:03.577Z,8.00
2023-08-15T22:24:11.849Z,7.70
2023-08-15T22:29:19.719Z,7.50
2023-08-15T22:34:27.458Z,7.10
2023-08-15T22:39:35.193Z,7.70
2023-08-15T22:44:42.710Z,7.40
2023-08-15T22:49:50.391Z,7.10
2023-08-15T22:54:57.954Z,6.70
2023-08-15T23:00:06.446Z,7.20
2023-08-15T23:05:14.588Z,7.00
2023-08-15T23:10:22.683Z,6.90
2023-08-15T23:15:30.234Z,6.50
2023-08-15T23:20:37.685Z,6.90
2023-08-15T23:25:45.365Z,6.80
2023-08-15T23:30:54.963Z,7.50
2023-08-15T23:36:02.440Z,7.20
2023-08-15T23:41:09.962Z,6.90
2023-08-15T23:46:17.268Z,6.20
2023-08-15T23:51:24.828Z,6.90
2023-08-15T23:56:32.468Z,6.60
